createdAt,value
2019-04-16T00:04:00.827Z,2.50
2019-04-16T00:08:59.165Z,2.50
2019-04-16T00:13:51.181Z,2.50
2019-04-16T00:18:35.853Z,2.50
2019-04-16T00:23:30.312Z,2.50
2019-04-16T00:28:14.909Z,2.50
2019-04-16T00:32:59.540Z,2.40
2019-04-16T00:37:44.553Z,2.30
2019-04-16T00:42:29.397Z,2.10
2019-04-16T00:47:14.237Z,2.10
2019-04-16T00:51:59.218Z,2.40
2019-04-16T00:56:46.583Z,2.50
2019-04-16T01:01:30.309Z,2.30
2019-04-16T01:06:14.965Z,2.10
2019-04-16T01:10:59.950Z,1.90
2019-04-16T01:15:44.750Z,1.90
2019-04-16T01:20:29.564Z,1.90
2019-04-16T01:25:14.321Z,1.90
2019-04-16T01:29:59.260Z,1.90
2019-04-16T01:35:05.953Z,1.90
2019-04-16T01:39:52.917Z,1.90
2019-04-16T01:44:37.609Z,2.00
2019-04-16T01:49:22.316Z,2.10
2019-04-16T01:54:07.021Z,2.10
2019-04-16T01:58:51.721Z,2.20
2019-04-16T02:03:36.375Z,2.40
2019-04-16T02:08:21.105Z,2.20
2019-04-16T02:13:05.741Z,2.10
2019-04-16T02:17:50.558Z,2.00
2019-04-16T02:22:35.323Z,1.80
2019-04-16T02:27:20.013Z,1.70
2019-04-16T02:32:04.703Z,1.60
2019-04-16T02:36:49.363Z,1.40
2019-04-16T02:41:34.146Z,1.40
2019-04-16T02:46:18.952Z,1.40
2019-04-16T02:51:15.131Z,1.50
2019-04-16T02:56:18.009Z,1.50
2019-04-16T03:01:28.521Z,1.60
2019-04-16T03:06:15.020Z,1.60
2019-04-16T03:10:59.513Z,1.70
2019-04-16T03:16:06.012Z,1.80
2019-04-16T03:20:52.427Z,1.70
2019-04-16T03:25:36.087Z,1.70
2019-04-16T03:30:21.326Z,1.60
2019-04-16T03:35:06.310Z,1.50
2019-04-16T03:39:51.185Z,1.50
2019-04-16T03:44:37.211Z,1.40
2019-04-16T03:49:24.576Z,1.50
2019-04-16T03:54:08.827Z,1.60
2019-04-16T03:58:56.037Z,1.60
2019-04-16T04:03:41.022Z,1.70
2019-04-16T04:08:26.278Z,1.60
2019-04-16T04:13:11.233Z,1.60
2019-04-16T04:17:56.221Z,1.80
2019-04-16T04:22:40.955Z,1.80
2019-04-16T04:27:25.686Z,1.70
2019-04-16T04:32:10.412Z,1.80
2019-04-16T04:36:58.882Z,1.90
2019-04-16T04:41:41.842Z,1.90
2019-04-16T04:46:26.518Z,2.00
2019-04-16T04:51:11.143Z,2.20
2019-04-16T04:55:57.195Z,2.50
2019-04-16T05:00:42.695Z,2.60
2019-04-16T05:05:32.672Z,2.80
2019-04-16T05:10:17.510Z,2.90
2019-04-16T05:15:03.843Z,3.00
2019-04-16T05:19:51.373Z,3.20
2019-04-16T05:24:37.751Z,3.40
2019-04-16T05:29:22.508Z,3.60
2019-04-16T05:34:07.332Z,3.80
2019-04-16T05:38:55.516Z,4.00
2019-04-16T05:43:38.728Z,4.30
2019-04-16T05:48:26.801Z,4.40
2019-04-16T05:53:13.310Z,4.70
2019-04-16T05:57:58.949Z,4.90
2019-04-16T06:02:44.145Z,5.10
2019-04-16T06:07:29.239Z,5.30
2019-04-16T06:12:14.102Z,5.50
2019-04-16T06:17:17.135Z,5.80
2019-04-16T06:22:19.333Z,6.20
2019-04-16T06:27:28.837Z,6.40
2019-04-16T06:32:35.640Z,6.70
2019-04-16T06:37:27.470Z,7.10
2019-04-16T06:42:25.391Z,7.40
2019-04-16T06:47:27.757Z,7.70
2019-04-16T06:52:31.394Z,7.90
2019-04-16T06:57:35.432Z,8.10
2019-04-16T07:02:43.209Z,8.40
2019-04-16T07:07:55.650Z,8.60
2019-04-16T07:12:40.529Z,8.90
2019-04-16T07:17:25.588Z,9.10
2019-04-16T07:22:10.355Z,9.70
2019-04-16T07:26:56.514Z,9.80
2019-04-16T07:31:47.032Z,9.90
2019-04-16T07:36:35.831Z,10.10
2019-04-16T07:41:42.737Z,10.50
2019-04-16T07:46:47.143Z,10.70
2019-04-16T07:51:41.793Z,11.00
2019-04-16T07:56:27.387Z,11.20
2019-04-16T08:01:16.069Z,11.30
2019-04-16T08:05:58.805Z,11.60
2019-04-16T08:10:44.900Z,12.00
2019-04-16T08:15:31.578Z,12.50
2019-04-16T08:20:19.797Z,13.00
2019-04-16T08:25:04.156Z,13.40
2019-04-16T08:29:49.428Z,13.50
2019-04-16T08:34:34.095Z,13.90
2019-04-16T08:39:19.170Z,14.00
2019-04-16T08:44:04.591Z,14.40
2019-04-16T08:48:54.297Z,14.60
2019-04-16T08:53:38.365Z,14.80
2019-04-16T08:58:23.307Z,15.60
2019-04-16T09:03:08.041Z,15.80
2019-04-16T09:07:52.723Z,15.70
2019-04-16T09:12:40.723Z,15.70
2019-04-16T09:17:30.823Z,15.80
2019-04-16T09:22:18.604Z,16.00
2019-04-16T09:27:22.464Z,16.30
2019-04-16T09:32:20.778Z,16.70
2019-04-16T09:37:35.753Z,16.20
2019-04-16T09:42:20.240Z,16.40
2019-04-16T09:47:05.453Z,16.70
2019-04-16T09:51:51.081Z,17.20
2019-04-16T09:56:36.083Z,17.50
2019-04-16T10:01:22.068Z,17.50
2019-04-16T10:06:07.682Z,17.60
2019-04-16T10:10:52.640Z,17.20
2019-04-16T10:15:40.287Z,17.80
2019-04-16T10:20:25.312Z,17.50
2019-04-16T10:25:13.735Z,17.90
2019-04-16T10:29:58.888Z,18.00
2019-04-16T10:34:43.765Z,18.30
2019-04-16T10:39:47.873Z,18.70
2019-04-16T10:44:52.686Z,18.50
2019-04-16T10:49:57.550Z,18.50
2019-04-16T10:54:53.844Z,17.90
2019-04-16T10:59:57.395Z,18.30
2019-04-16T11:05:03.008Z,18.50
2019-04-16T11:09:48.808Z,18.70
2019-04-16T11:14:33.927Z,18.60
2019-04-16T11:19:19.166Z,18.70
2019-04-16T11:24:04.202Z,18.70
2019-04-16T11:28:48.938Z,18.90
2019-04-16T11:33:33.555Z,19.30
2019-04-16T11:38:18.318Z,19.10
2019-04-16T11:43:03.225Z,19.30
2019-04-16T11:47:48.288Z,19.40
2019-04-16T11:52:33.669Z,19.20
2019-04-16T11:57:18.539Z,19.40
2019-04-16T12:02:20.000Z,19.40
2019-04-16T12:07:22.270Z,19.10
2019-04-16T12:12:17.555Z,19.10
2019-04-16T12:17:23.829Z,19.20
2019-04-16T12:22:39.664Z,19.50
2019-04-16T12:27:44.253Z,19.80
2019-04-16T12:32:38.293Z,19.60
2019-04-16T12:37:40.912Z,19.90
2019-04-16T12:42:41.248Z,19.70
2019-04-16T12:47:45.953Z,19.90
2019-04-16T12:52:51.931Z,20.10
2019-04-16T12:57:52.066Z,20.30
2019-04-16T13:02:54.690Z,19.30
2019-04-16T13:08:02.337Z,19.20
2019-04-16T13:13:12.102Z,19.50
2019-04-16T13:18:27.939Z,19.40
2019-04-16T13:23:22.655Z,19.30
2019-04-16T13:28:14.958Z,19.30
2019-04-16T13:33:00.056Z,19.90
2019-04-16T13:37:44.992Z,19.50
2019-04-16T13:42:30.075Z,20.10
2019-04-16T13:47:15.036Z,20.30
2019-04-16T13:52:02.944Z,20.50
2019-04-16T13:56:53.444Z,20.40
2019-04-16T14:02:00.700Z,20.30
2019-04-16T14:06:46.241Z,20.20
2019-04-16T14:11:34.747Z,20.30
2019-04-16T14:16:19.806Z,20.20
2019-04-16T14:21:04.393Z,20.20
2019-04-16T14:25:52.556Z,19.90
2019-04-16T14:30:42.727Z,19.90
2019-04-16T14:35:33.386Z,20.00
2019-04-16T14:40:23.080Z,20.00
2019-04-16T14:45:24.838Z,20.00
2019-04-16T14:50:13.307Z,20.00
2019-04-16T14:55:18.586Z,19.90
2019-04-16T15:00:20.765Z,19.90
2019-04-16T15:05:08.627Z,19.60
2019-04-16T15:11:10.570Z,19.80
2019-04-16T15:16:21.236Z,19.50
2019-04-16T15:21:12.567Z,19.60
2019-04-16T15:26:14.812Z,19.40
2019-04-16T15:31:12.038Z,19.60
2019-04-16T15:36:04.054Z,19.30
2019-04-16T15:40:49.224Z,18.80
2019-04-16T15:45:38.281Z,19.00
2019-04-16T15:50:57.553Z,19.00
2019-04-16T15:56:03.344Z,18.80
2019-04-16T16:00:52.954Z,18.70
2019-04-16T16:05:45.223Z,18.50
2019-04-16T16:10:36.765Z,18.50
2019-04-16T16:15:21.473Z,18.40
2019-04-16T16:20:10.195Z,18.30
2019-04-16T16:24:54.139Z,18.30
2019-04-16T16:29:39.004Z,18.30
2019-04-16T16:34:24.742Z,18.30
2019-04-16T16:39:09.670Z,18.10
2019-04-16T16:43:54.501Z,17.80
2019-04-16T16:48:39.971Z,17.90
2019-04-16T16:53:30.771Z,17.80
2019-04-16T16:58:34.480Z,17.50
2019-04-16T17:03:39.677Z,17.30
2019-04-16T17:08:27.128Z,17.30
2019-04-16T17:13:14.628Z,16.90
2019-04-16T17:17:57.832Z,16.50
2019-04-16T17:22:43.073Z,15.00
2019-04-16T17:27:28.071Z,14.10
2019-04-16T17:32:12.934Z,13.40
2019-04-16T17:36:58.561Z,12.90
2019-04-16T17:41:49.874Z,12.50
2019-04-16T17:46:55.352Z,12.20
2019-04-16T17:51:55.697Z,11.80
2019-04-16T17:57:05.427Z,11.60
2019-04-16T18:02:09.465Z,11.40
2019-04-16T18:07:07.917Z,11.30
2019-04-16T18:12:29.911Z,11.10
2019-04-16T18:17:24.313Z,11.00
2019-04-16T18:22:23.943Z,10.70
2019-04-16T18:27:25.515Z,10.50
2019-04-16T18:32:23.860Z,10.30
2019-04-16T18:37:28.550Z,10.40
2019-04-16T18:42:38.780Z,10.40
2019-04-16T18:47:45.851Z,10.40
2019-04-16T18:52:32.509Z,10.30
2019-04-16T18:57:22.062Z,10.10
2019-04-16T19:02:09.620Z,10.00
2019-04-16T19:07:06.258Z,9.70
2019-04-16T19:11:52.672Z,9.50
2019-04-16T19:16:37.643Z,9.10
2019-04-16T19:21:23.381Z,8.90
2019-04-16T19:26:10.148Z,8.70
2019-04-16T19:31:01.033Z,8.50
2019-04-16T19:35:50.995Z,8.50
2019-04-16T19:40:33.095Z,8.40
2019-04-16T19:45:18.577Z,8.40
2019-04-16T19:50:09.022Z,8.40
2019-04-16T19:54:54.281Z,8.40
2019-04-16T19:59:39.531Z,8.40
2019-04-16T20:04:24.971Z,8.10
2019-04-16T20:09:10.362Z,7.90
2019-04-16T20:13:58.579Z,7.70
2019-04-16T20:18:50.851Z,7.60
2019-04-16T20:23:30.657Z,7.60
2019-04-16T20:28:22.985Z,7.50
2019-04-16T20:33:08.148Z,7.40
2019-04-16T20:37:55.128Z,7.20
2019-04-16T20:42:45.548Z,7.00
2019-04-16T20:47:38.532Z,6.80
2019-04-16T20:52:21.651Z,6.70
2019-04-16T20:57:07.666Z,6.40
2019-04-16T21:01:52.656Z,6.00
2019-04-16T21:06:41.254Z,5.80
2019-04-16T21:11:24.828Z,5.60
2019-04-16T21:16:09.720Z,5.30
2019-04-16T21:20:54.573Z,5.10
2019-04-16T21:25:42.922Z,4.90
2019-04-16T21:30:26.640Z,4.60
2019-04-16T21:35:31.979Z,4.40
2019-04-16T21:40:17.404Z,4.20
2019-04-16T21:45:02.585Z,4.10
2019-04-16T21:49:47.958Z,4.00
2019-04-16T21:54:33.250Z,3.90
2019-04-16T21:59:21.268Z,3.80
2019-04-16T22:04:14.447Z,3.70
2019-04-16T22:09:02.506Z,3.50
2019-04-16T22:13:50.440Z,3.60
2019-04-16T22:18:33.074Z,3.70
2019-04-16T22:23:19.298Z,4.00
2019-04-16T22:28:08.390Z,4.10
2019-04-16T22:32:52.546Z,4.30
2019-04-16T22:37:38.096Z,4.50
2019-04-16T22:42:32.694Z,4.50
2019-04-16T22:47:28.970Z,4.50
2019-04-16T22:52:14.201Z,4.60
2019-04-16T22:57:07.633Z,4.90
2019-04-16T23:01:53.406Z,4.70
2019-04-16T23:06:38.997Z,4.40
2019-04-16T23:11:24.578Z,4.10
2019-04-16T23:16:09.798Z,3.80
2019-04-16T23:20:55.292Z,3.70
2019-04-16T23:25:40.535Z,3.60
2019-04-16T23:30:25.565Z,3.50
2019-04-16T23:35:11.700Z,3.40
2019-04-16T23:39:56.794Z,3.40
2019-04-16T23:44:51.709Z,3.20
2019-04-16T23:50:06.437Z,3.10
2019-04-16T23:55:09.197Z,3.10
